Aviation Digital Data Service (ADDS)

Output produced by METARs form (1330 UTC 21 April 2021)
found at http://www.aviationweather.gov/metar/data/
 
METAR text: WSSL 211300Z 06004KT 9999 FEW016 BKN150 27/24 Q1010
Conditions at: WSSL (SINGAPORE/SELETA, SG) observed 1300 UTC 21 April 2021
Temperature: 27.0°C (81°F)
Dewpoint: 24.0°C (75°F) [RH = 84%]
Pressure (altimeter): 29.82 inches Hg (1010.0 mb)
Winds: from the ENE (60 degrees) at 5 MPH (4 knots; 2.1 m/s)
Visibility: 6 or more miles (10+ km)
Ceiling: 15000 feet AGL
Clouds: few clouds at 1600 feet AGL
broken clouds at 15000 feet AGL
Weather: no significant weather observed at this time

Forecast for: WSSL (SINGAPORE/SELETA, SG)
Text: TAF WSSL 211100Z 2112/2218 20006KT 9999 FEW015CB SCT020
Forecast period: 1200 UTC 21 April 2021 to 1800 UTC 22 April 2021
Forecast type: FROM: standard forecast or significant change
Winds: from the SSW (200 degrees) at 7 MPH (6 knots; 3.1 m/s)
Visibility: 6 or more miles (10+ km)
Ceiling: at least 12,000 feet AGL
Clouds: few clouds at 1500 feet AGL
scattered clouds at 2000 feet AGL
Weather: no significant weather forecast for this period
Text: TEMPO 2200/2204 3000 TSRA FEW012CB BKN015
Forecast period: 0000 to 0400 UTC 22 April 2021
Forecast type: TEMPORARY: The following changes expected for less than half the time period
Visibility: 1.86 miles (2.99 km)
Ceiling: 1500 feet AGL
Clouds: few clouds at 1200 feet AGL
broken clouds at 1500 feet AGL
Weather: TSRA  (rain associated with thunderstorm(s))